createdAt,value
2023-04-16T00:02:22.675Z,1.17
2023-04-16T00:05:25.698Z,1.48
2023-04-16T00:08:28.172Z,1.50
2023-04-16T00:11:30.839Z,1.40
2023-04-16T00:14:34.568Z,1.13
2023-04-16T00:17:37.355Z,1.65
2023-04-16T00:20:40.431Z,1.55
2023-04-16T00:23:42.991Z,1.25
2023-04-16T00:26:45.556Z,1.60
2023-04-16T00:29:49.135Z,1.85
2023-04-16T00:32:52.787Z,1.67
2023-04-16T00:35:55.105Z,2.00
2023-04-16T00:38:58.370Z,1.80
2023-04-16T00:42:01.698Z,2.00
2023-04-16T00:45:04.226Z,2.28
2023-04-16T00:48:06.634Z,2.10
2023-04-16T00:51:09.071Z,2.00
2023-04-16T00:54:11.738Z,2.38
2023-04-16T00:57:15.483Z,2.40
2023-04-16T01:00:18.911Z,2.70
2023-04-16T01:03:21.878Z,2.70
2023-04-16T01:06:24.274Z,2.60
2023-04-16T01:09:26.511Z,2.95
2023-04-16T01:12:28.709Z,3.08
2023-04-16T01:15:31.732Z,3.00
2023-04-16T01:18:34.229Z,3.17
2023-04-16T01:21:37.187Z,3.25
2023-04-16T01:24:40.081Z,3.00
2023-04-16T01:27:46.102Z,3.20
2023-04-16T01:30:50.078Z,3.05
2023-04-16T01:34:02.731Z,3.28
2023-04-16T01:37:06.395Z,3.20
2023-04-16T01:40:09.503Z,3.28
2023-04-16T01:43:12.680Z,3.47
2023-04-16T01:46:15.117Z,3.50
2023-04-16T01:49:17.924Z,3.60
2023-04-16T01:52:21.479Z,3.50
2023-04-16T01:55:24.323Z,3.10
2023-04-16T01:58:27.318Z,3.90
2023-04-16T02:01:30.370Z,3.95
2023-04-16T02:04:32.967Z,3.72
2023-04-16T02:07:36.207Z,3.70
2023-04-16T02:10:39.028Z,3.97
2023-04-16T02:13:43.142Z,3.63
2023-04-16T02:16:45.909Z,3.33
2023-04-16T02:20:09.875Z,4.13
2023-04-16T02:23:18.244Z,3.47
2023-04-16T02:26:20.821Z,3.63
2023-04-16T02:29:24.867Z,4.25
2023-04-16T02:32:35.594Z,3.75
2023-04-16T02:35:38.607Z,3.90
2023-04-16T02:38:41.324Z,4.28
2023-04-16T02:41:44.137Z,3.80
2023-04-16T02:44:46.585Z,4.32
2023-04-16T02:47:48.981Z,4.40
2023-04-16T02:50:51.309Z,3.67
2023-04-16T02:53:54.311Z,4.13
2023-04-16T02:56:56.896Z,3.90
2023-04-16T03:00:00.477Z,4.80
2023-04-16T03:03:03.872Z,4.22
2023-04-16T03:06:07.163Z,4.53
2023-04-16T03:09:09.863Z,5.15
2023-04-16T03:12:13.083Z,4.78
2023-04-16T03:15:15.974Z,4.53
2023-04-16T03:18:18.934Z,4.28
2023-04-16T03:21:21.623Z,4.30
2023-04-16T03:24:24.717Z,5.03
2023-04-16T03:27:27.726Z,4.97
2023-04-16T03:30:30.873Z,5.10
2023-04-16T03:33:33.285Z,4.97
2023-04-16T03:36:36.300Z,4.57
2023-04-16T03:39:38.874Z,3.92
2023-04-16T03:42:41.370Z,4.55
2023-04-16T03:45:43.911Z,4.10
2023-04-16T03:48:46.638Z,4.22
2023-04-16T03:51:49.594Z,4.18
2023-04-16T03:54:53.362Z,4.40
2023-04-16T03:58:02.284Z,4.53
2023-04-16T04:01:07.032Z,4.53
2023-04-16T04:04:12.802Z,5.07
2023-04-16T04:07:15.331Z,4.75
2023-04-16T04:10:18.230Z,5.20
2023-04-16T04:13:20.982Z,5.55
2023-04-16T04:16:30.681Z,5.30
2023-04-16T04:19:34.432Z,5.50
2023-04-16T04:22:37.390Z,5.07
2023-04-16T04:25:39.753Z,5.45
2023-04-16T04:28:43.138Z,5.10
2023-04-16T04:31:46.282Z,4.88
2023-04-16T04:34:49.410Z,5.10
2023-04-16T04:37:51.790Z,5.10
2023-04-16T04:40:56.266Z,4.72
2023-04-16T04:44:00.091Z,4.80
2023-04-16T04:47:02.673Z,4.80
2023-04-16T04:50:06.094Z,4.88
2023-04-16T04:53:09.442Z,4.82
2023-04-16T04:56:13.308Z,5.78
2023-04-16T04:59:16.987Z,5.13
2023-04-16T05:02:20.109Z,5.53
2023-04-16T05:05:22.310Z,4.78
2023-04-16T05:08:25.422Z,5.45
2023-04-16T05:11:28.491Z,5.20
2023-04-16T05:14:31.594Z,5.40
2023-04-16T05:17:33.837Z,5.05
2023-04-16T05:20:36.642Z,4.90
2023-04-16T05:23:39.639Z,4.90
2023-04-16T05:26:42.689Z,4.93
2023-04-16T05:29:45.405Z,4.68
2023-04-16T05:32:49.183Z,4.75
2023-04-16T05:35:52.639Z,4.78
2023-04-16T05:38:55.095Z,4.88
2023-04-16T05:41:58.276Z,4.53
2023-04-16T05:45:01.105Z,4.45
2023-04-16T05:48:04.567Z,4.97
2023-04-16T05:51:07.613Z,4.70
2023-04-16T05:54:10.944Z,4.55
2023-04-16T05:57:13.345Z,4.45
2023-04-16T06:00:16.539Z,4.57
2023-04-16T06:03:19.055Z,4.35
2023-04-16T06:06:21.646Z,4.57
2023-04-16T06:09:24.271Z,4.60
2023-04-16T06:12:27.042Z,4.43
2023-04-16T06:15:30.982Z,4.43
2023-04-16T06:18:34.268Z,4.35
2023-04-16T06:21:37.792Z,4.25
2023-04-16T06:24:41.301Z,4.30
2023-04-16T06:27:44.026Z,4.60
2023-04-16T06:30:46.389Z,4.80
2023-04-16T06:33:49.318Z,4.63
2023-04-16T06:36:52.177Z,4.85
2023-04-16T06:39:55.565Z,4.78
2023-04-16T06:42:59.914Z,5.10
2023-04-16T06:46:02.991Z,4.70
2023-04-16T06:49:05.861Z,5.50
2023-04-16T06:52:09.150Z,5.28
2023-04-16T06:55:12.217Z,5.30
2023-04-16T06:58:16.229Z,5.65
2023-04-16T07:01:19.779Z,5.65
2023-04-16T07:04:22.126Z,5.55
2023-04-16T07:07:24.935Z,5.70
2023-04-16T07:10:27.948Z,44.38
2023-04-16T07:13:30.974Z,30.60
2023-04-16T07:16:33.903Z,28.55
2023-04-16T07:19:36.932Z,28.92
2023-04-16T07:22:40.088Z,29.85
2023-04-16T07:25:42.644Z,27.85
2023-04-16T07:28:45.361Z,27.17
2023-04-16T07:31:48.151Z,25.70
2023-04-16T07:34:50.896Z,24.95
2023-04-16T07:37:54.260Z,24.88
2023-04-16T07:40:57.492Z,24.67
2023-04-16T07:44:00.820Z,23.45
2023-04-16T07:47:57.684Z,22.85
2023-04-16T07:51:00.388Z,22.27
2023-04-16T07:54:02.629Z,22.52
2023-04-16T07:57:05.833Z,21.85
2023-04-16T08:00:08.917Z,22.83
2023-04-16T08:03:17.745Z,23.85
2023-04-16T08:06:20.638Z,22.92
2023-04-16T08:09:23.280Z,22.00
2023-04-16T08:12:26.029Z,23.13
2023-04-16T08:15:28.685Z,22.45
2023-04-16T08:18:32.320Z,21.65
2023-04-16T08:21:35.792Z,22.20
2023-04-16T08:24:38.263Z,21.75
2023-04-16T08:27:41.032Z,21.27
2023-04-16T08:30:43.624Z,20.65
2023-04-16T08:33:46.678Z,19.80
2023-04-16T08:36:49.778Z,20.13
2023-04-16T08:39:52.693Z,21.55
2023-04-16T08:42:55.556Z,21.17
2023-04-16T08:45:59.379Z,21.25
2023-04-16T08:49:02.425Z,20.88
2023-04-16T08:52:05.250Z,20.85
2023-04-16T08:55:08.140Z,21.88
2023-04-16T08:58:10.867Z,21.00
2023-04-16T09:01:13.447Z,21.73
2023-04-16T09:04:16.496Z,21.88
2023-04-16T09:07:19.296Z,22.23
2023-04-16T09:10:22.084Z,22.58
2023-04-16T09:13:25.080Z,21.30
2023-04-16T09:16:28.157Z,21.52
2023-04-16T09:19:31.722Z,21.30
2023-04-16T09:22:34.452Z,22.27
2023-04-16T09:25:37.181Z,22.23
2023-04-16T09:28:39.722Z,22.10
2023-04-16T09:31:42.939Z,22.63
2023-04-16T09:34:46.452Z,20.98
2023-04-16T09:37:48.789Z,20.90
2023-04-16T09:40:51.378Z,20.88
2023-04-16T09:43:53.957Z,21.42
2023-04-16T09:46:56.527Z,25.08
2023-04-16T09:49:59.789Z,27.30
2023-04-16T09:53:02.798Z,24.60
2023-04-16T09:56:06.180Z,26.73
2023-04-16T09:59:09.453Z,25.13
2023-04-16T10:02:15.750Z,25.70
2023-04-16T10:05:19.961Z,24.35
2023-04-16T10:08:22.714Z,24.95
2023-04-16T10:11:26.115Z,24.83
2023-04-16T10:14:28.709Z,24.95
2023-04-16T10:17:31.733Z,24.55
2023-04-16T10:20:34.754Z,23.13
2023-04-16T10:23:37.520Z,23.00
2023-04-16T10:26:40.861Z,22.17
2023-04-16T10:29:44.007Z,22.35
2023-04-16T10:32:47.124Z,20.95
2023-04-16T10:35:57.877Z,21.13
2023-04-16T10:39:08.041Z,20.58
2023-04-16T10:42:11.234Z,20.77
2023-04-16T10:45:14.780Z,20.65
2023-04-16T10:48:17.909Z,20.85
2023-04-16T10:51:21.355Z,19.90
2023-04-16T10:54:24.886Z,20.10
2023-04-16T10:57:27.667Z,21.17
2023-04-16T11:00:30.373Z,19.33
2023-04-16T11:03:33.267Z,19.27
2023-04-16T11:06:35.601Z,19.60
2023-04-16T11:09:37.947Z,19.63
2023-04-16T11:12:40.188Z,19.40
2023-04-16T11:15:43.378Z,19.80
2023-04-16T11:18:51.145Z,19.27
2023-04-16T11:21:53.873Z,18.77
2023-04-16T11:24:56.242Z,18.15
2023-04-16T11:27:59.255Z,20.48
2023-04-16T11:31:03.003Z,19.27
2023-04-16T11:34:05.397Z,18.48
2023-04-16T11:37:08.614Z,18.33
2023-04-16T11:43:36.212Z,18.05
2023-04-16T11:46:38.826Z,18.98
2023-04-16T11:49:41.833Z,18.33
2023-04-16T11:52:44.053Z,17.88
2023-04-16T11:55:46.603Z,17.05
2023-04-16T11:58:49.435Z,17.05
2023-04-16T12:01:52.206Z,17.92
2023-04-16T12:04:54.645Z,18.35
2023-04-16T12:07:57.906Z,18.15
2023-04-16T12:11:01.496Z,18.35
2023-04-16T12:14:04.551Z,18.05
2023-04-16T12:17:07.980Z,18.42
2023-04-16T12:20:11.439Z,18.10
2023-04-16T12:23:14.657Z,17.50
2023-04-16T12:26:17.769Z,18.02
2023-04-16T12:29:20.841Z,17.33
2023-04-16T12:32:23.926Z,16.85
2023-04-16T12:35:27.310Z,17.50
2023-04-16T12:38:31.458Z,16.92
2023-04-16T12:41:34.037Z,16.13
2023-04-16T12:44:36.890Z,17.92
2023-04-16T12:47:39.745Z,16.48
2023-04-16T12:50:42.966Z,17.60
2023-04-16T12:53:45.784Z,16.65
2023-04-16T12:56:48.270Z,17.02
2023-04-16T12:59:51.427Z,15.93
2023-04-16T13:02:54.762Z,16.83
2023-04-16T13:05:57.877Z,15.85
2023-04-16T13:09:00.134Z,15.93
2023-04-16T13:12:02.584Z,15.50
2023-04-16T13:15:06.110Z,15.10
2023-04-16T13:18:10.034Z,15.30
2023-04-16T13:21:13.525Z,13.88
2023-04-16T13:24:16.805Z,14.73
2023-04-16T13:27:19.993Z,14.55
2023-04-16T13:30:23.817Z,14.88
2023-04-16T13:33:26.847Z,14.98
2023-04-16T13:36:29.157Z,14.13
2023-04-16T13:39:31.920Z,13.82
2023-04-16T13:42:34.373Z,13.90
2023-04-16T13:45:36.739Z,15.10
2023-04-16T13:48:39.289Z,14.07
2023-04-16T13:51:42.172Z,14.05
2023-04-16T13:54:45.076Z,14.57
2023-04-16T13:57:55.051Z,13.95
2023-04-16T14:00:58.052Z,14.00
2023-04-16T14:04:01.003Z,14.82
2023-04-16T14:07:03.700Z,14.25
2023-04-16T14:10:06.631Z,15.07
2023-04-16T14:13:09.411Z,13.98
2023-04-16T14:16:12.360Z,14.15
2023-04-16T14:19:15.455Z,14.57
2023-04-16T14:22:18.350Z,14.27
2023-04-16T14:25:21.778Z,14.32
2023-04-16T14:28:24.993Z,13.90
2023-04-16T14:31:27.349Z,14.00
2023-04-16T14:34:30.297Z,14.57
2023-04-16T14:37:33.989Z,14.13
2023-04-16T14:40:36.576Z,13.85
2023-04-16T14:43:40.446Z,14.05
2023-04-16T14:46:42.554Z,14.20
2023-04-16T14:49:45.446Z,14.10
2023-04-16T14:52:48.948Z,14.38
2023-04-16T14:55:51.578Z,14.70
2023-04-16T14:58:55.047Z,14.00
2023-04-16T15:01:58.200Z,14.73
2023-04-16T15:05:01.803Z,13.80
2023-04-16T15:08:04.550Z,13.98
2023-04-16T15:11:07.125Z,13.82
2023-04-16T15:14:10.114Z,13.38
2023-04-16T15:17:12.779Z,13.60
2023-04-16T15:20:15.727Z,13.82
2023-04-16T15:23:18.032Z,13.40
2023-04-16T15:26:20.571Z,13.10
2023-04-16T15:29:23.841Z,13.15
2023-04-16T15:32:27.845Z,13.57
2023-04-16T15:35:31.260Z,13.50
2023-04-16T15:38:34.087Z,13.35
2023-04-16T15:41:37.148Z,13.10
2023-04-16T15:44:40.086Z,12.70
2023-04-16T15:47:43.022Z,21.10
2023-04-16T15:50:46.682Z,45.75
2023-04-16T15:53:48.958Z,32.03
2023-04-16T15:56:51.615Z,28.98
2023-04-16T16:03:03.291Z,27.85
2023-04-16T16:06:06.330Z,26.20
2023-04-16T16:09:09.839Z,23.70
2023-04-16T16:12:13.590Z,24.27
2023-04-16T16:15:17.350Z,23.05
2023-04-16T16:18:20.474Z,23.02
2023-04-16T16:21:23.967Z,23.45
2023-04-16T16:24:27.069Z,21.65
2023-04-16T16:27:30.509Z,21.60
2023-04-16T16:30:32.562Z,20.42
2023-04-16T16:33:36.511Z,19.52
2023-04-16T16:36:40.287Z,19.80
2023-04-16T16:39:42.226Z,19.90
2023-04-16T16:42:45.101Z,17.85
2023-04-16T16:45:47.834Z,18.30
2023-04-16T16:48:51.408Z,18.48
2023-04-16T16:51:53.776Z,17.55
2023-04-16T16:54:56.473Z,18.17
2023-04-16T16:57:59.216Z,18.00
2023-04-16T17:01:02.115Z,16.20
2023-04-16T17:04:04.988Z,15.80
2023-04-16T17:07:08.298Z,15.60
2023-04-16T17:10:10.803Z,15.25
2023-04-16T17:13:13.729Z,14.93
2023-04-16T17:16:16.191Z,14.35
2023-04-16T17:19:18.501Z,14.27
2023-04-16T17:22:21.159Z,15.07
2023-04-16T17:25:23.992Z,14.38
2023-04-16T17:28:26.968Z,14.48
2023-04-16T17:31:29.266Z,13.52
2023-04-16T17:34:31.613Z,15.13
2023-04-16T17:37:34.883Z,14.15
2023-04-16T17:40:38.542Z,13.63
2023-04-16T17:43:41.017Z,14.45
2023-04-16T17:46:43.682Z,13.85
2023-04-16T17:49:45.981Z,14.20
2023-04-16T17:52:49.099Z,13.52
2023-04-16T17:55:53.597Z,14.00
2023-04-16T17:58:57.498Z,14.10
2023-04-16T18:01:59.878Z,14.00
2023-04-16T18:05:02.802Z,14.20
2023-04-16T18:08:05.746Z,13.88
2023-04-16T18:11:08.794Z,13.68
2023-04-16T18:14:11.853Z,14.27
2023-04-16T18:17:14.894Z,13.27
2023-04-16T18:20:17.605Z,13.80
2023-04-16T18:23:20.611Z,14.30
2023-04-16T18:26:23.338Z,13.27
2023-04-16T18:29:26.505Z,13.43
2023-04-16T18:32:31.242Z,14.20
2023-04-16T18:35:34.470Z,14.25
2023-04-16T18:38:46.384Z,13.55
2023-04-16T18:41:51.950Z,13.52
2023-04-16T18:44:55.246Z,13.90
2023-04-16T18:47:58.144Z,14.23
2023-04-16T18:51:01.225Z,13.02
2023-04-16T18:54:04.233Z,13.40
2023-04-16T18:57:06.763Z,13.88
2023-04-16T19:00:09.495Z,13.23
2023-04-16T19:03:12.086Z,13.65
2023-04-16T19:06:14.942Z,13.75
2023-04-16T19:09:18.037Z,12.18
2023-04-16T19:12:20.512Z,12.45
2023-04-16T19:15:22.810Z,12.82
2023-04-16T19:18:26.483Z,12.93
2023-04-16T19:21:30.181Z,12.32
2023-04-16T19:24:34.271Z,12.25
2023-04-16T19:27:37.686Z,12.23
2023-04-16T19:30:40.779Z,11.95
2023-04-16T19:33:43.898Z,12.55
2023-04-16T19:36:47.710Z,12.73
2023-04-16T19:39:50.448Z,12.68
2023-04-16T19:42:53.298Z,12.85
2023-04-16T19:45:56.880Z,12.65
2023-04-16T19:48:59.613Z,12.98
2023-04-16T19:52:02.391Z,12.07
2023-04-16T19:55:04.981Z,13.02
2023-04-16T19:58:08.287Z,12.82
2023-04-16T20:01:11.813Z,12.95
2023-04-16T20:04:14.014Z,13.02
2023-04-16T20:07:16.351Z,12.60
2023-04-16T20:10:19.417Z,12.68
2023-04-16T20:13:22.739Z,12.85
2023-04-16T20:16:26.137Z,12.50
2023-04-16T20:19:29.329Z,13.75
2023-04-16T20:22:32.279Z,12.93
2023-04-16T20:25:35.758Z,14.13
2023-04-16T20:28:38.556Z,13.00
2023-04-16T20:31:40.808Z,13.70
2023-04-16T20:34:43.074Z,13.55
2023-04-16T20:37:46.296Z,12.57
2023-04-16T20:40:49.761Z,13.02
2023-04-16T20:43:52.314Z,13.52
2023-04-16T20:46:55.113Z,13.65
2023-04-16T20:49:58.302Z,14.57
2023-04-16T20:53:01.592Z,13.40
2023-04-16T20:56:04.898Z,13.88
2023-04-16T20:59:07.632Z,13.40
2023-04-16T21:02:10.583Z,13.68
2023-04-16T21:05:13.473Z,13.88
2023-04-16T21:08:16.257Z,13.88
2023-04-16T21:11:18.736Z,13.60
2023-04-16T21:14:21.455Z,14.02
2023-04-16T21:17:23.968Z,13.57
2023-04-16T21:20:28.804Z,13.32
2023-04-16T21:23:33.444Z,13.63
2023-04-16T21:26:36.173Z,13.35
2023-04-16T21:29:39.099Z,13.63
2023-04-16T21:32:41.738Z,13.70
2023-04-16T21:35:44.928Z,13.32
2023-04-16T21:38:48.766Z,13.45
2023-04-16T21:41:51.289Z,13.25
2023-04-16T21:44:54.487Z,13.93
2023-04-16T21:47:57.591Z,13.35
2023-04-16T21:51:00.158Z,13.63
2023-04-16T21:54:03.060Z,14.18
2023-04-16T21:57:05.795Z,14.57
2023-04-16T22:00:08.630Z,13.52
2023-04-16T22:03:10.946Z,13.02
2023-04-16T22:06:13.887Z,14.13
2023-04-16T22:09:17.339Z,13.65
2023-04-16T22:12:21.237Z,13.90
2023-04-16T22:15:24.620Z,14.00
2023-04-16T22:18:27.894Z,14.30
2023-04-16T22:21:30.429Z,13.30
2023-04-16T22:24:32.659Z,14.48
2023-04-16T22:27:35.333Z,13.40
2023-04-16T22:30:38.312Z,14.60
2023-04-16T22:33:41.235Z,14.55
2023-04-16T22:36:44.279Z,14.13
2023-04-16T22:39:47.294Z,13.88
2023-04-16T22:42:50.449Z,13.80
2023-04-16T22:45:53.702Z,14.57
2023-04-16T22:48:56.912Z,13.80
2023-04-16T22:51:59.570Z,14.15
2023-04-16T22:55:02.683Z,14.63
2023-04-16T22:58:06.053Z,14.43
2023-04-16T23:01:09.135Z,13.73
2023-04-16T23:04:11.396Z,14.20
2023-04-16T23:07:13.863Z,13.80
2023-04-16T23:10:16.746Z,14.30
2023-04-16T23:13:19.452Z,14.15
2023-04-16T23:16:23.068Z,13.60
2023-04-16T23:19:25.386Z,14.45
2023-04-16T23:22:27.957Z,14.63
2023-04-16T23:25:31.215Z,14.23
2023-04-16T23:28:34.406Z,14.27
2023-04-16T23:31:37.499Z,14.25
2023-04-16T23:34:40.471Z,14.25
2023-04-16T23:37:43.450Z,14.32
2023-04-16T23:40:46.523Z,14.02
2023-04-16T23:43:49.701Z,14.15
2023-04-16T23:46:52.693Z,14.88
2023-04-16T23:49:56.213Z,14.00
2023-04-16T23:52:59.233Z,13.50
2023-04-16T23:56:02.061Z,14.18
2023-04-16T23:59:05.128Z,14.40
